Star Markella — V7KL3 — position and weather

sailwx.info

Track history (hours):
 
Tides and Currents Weather Stations Pressure Air Temp Water Temp Dewpoint Dewpoint Depression Visibility Wind Speed Wind Dir Waves Ship Positions

Star Markella

Last reported at 2016-Jul-12 10:29 UTC. Time now 2016-Jul-24 04:59 UTC.
Position S 24°33' W 045°25'.
Warning: this ship's position is 11 days out of date.

Length 229 m; draft 13.3 m.

Type: Cargo ship. MMSI: 538002640.

Date/timePositionNaut miles runAvg speedWind from/ knotsBaromVisibWave heightAir tempDewpointWater temp
2016-Jul-12 10:29S 24°33' W 045°25'1212.7
2016-Jul-12 09:33S 24°31' W 045°38'1312.6
2016-Jul-12 08:33S 24°29' W 045°52'1312.5
2016-Jul-12 07:33S 24°27' W 046°05'1111.1
2016-Jul-12 06:33S 24°22' W 046°16'1212.0
2016-Jul-12 05:33S 24°11' W 046°21'9 9.5
2016-Jul-12 04:33S 24°01' W 046°21'4 4.4
2016-Jul-12 03:33S 23°58' W 046°17'0 0.0
2016-Jul-12 02:30S 23°58' W 046°17'0 0.0
2016-Jul-12 01:30S 23°58' W 046°17'0 0.0
2016-Jul-12 00:33S 23°58' W 046°17'0 0.0
2016-Jul-11 23:33S 23°58' W 046°17'0 0.0
2016-Jul-11 22:30S 23°58' W 046°17'0 0.0
2016-Jul-11 21:33S 23°58' W 046°17'0 0.0
2016-Jul-11 20:30S 23°58' W 046°17'0 0.0
2016-Jul-11 19:33S 23°58' W 046°17'0 0.0
2016-Jul-11 18:33S 23°58' W 046°17'0 0.0
2016-Jul-11 17:27S 23°58' W 046°17'0 0.0
2016-Jul-11 16:33S 23°58' W 046°17'0 0.0
2016-Jul-11 15:33S 23°58' W 046°17'0 0.3
2016-Jul-11 14:33S 23°58' W 046°17'6 6.4
2016-Jul-11 13:33S 24°04' W 046°22'6 5.5
2016-Jul-11 12:33S 24°09' W 046°20'8 8.1
2016-Jul-11 11:33S 24°13' W 046°13'0 0.1
2016-Jul-11 10:31S 24°13' W 046°13'0 0.0
2016-Jul-11 09:31S 24°13' W 046°13'0 0.0
2016-Jul-11 08:31S 24°13' W 046°13'0 0.0
2016-Jul-11 07:31S 24°13' W 046°13'0 0.0
2016-Jul-11 06:28S 24°13' W 046°13'0 0.0
2016-Jul-11 04:31S 24°13' W 046°13'0 0.0
2016-Jul-11 03:31S 24°13' W 046°13'0 0.0
2016-Jul-11 02:31S 24°13' W 046°13'0 0.0
2016-Jul-11 01:31S 24°13' W 046°13'0 0.0
2016-Jul-11 00:28S 24°13' W 046°13'0 0.0
2016-Jul-10 23:31S 24°13' W 046°13'0 0.0
2016-Jul-10 22:31S 24°13' W 046°13'0 0.0
2016-Jul-10 21:31S 24°13' W 046°13'0 0.0
2016-Jul-10 20:31S 24°13' W 046°13'0 0.0
2016-Jul-10 19:31S 24°13' W 046°13'0 0.0
2016-Jul-10 18:28S 24°13' W 046°13'0 0.0
2016-Jul-10 17:28S 24°13' W 046°13'0 0.0
2016-Jul-10 16:31S 24°13' W 046°13'0 0.0
2016-Jul-10 15:31S 24°13' W 046°13'0 0.0
2016-Jul-10 14:25S 24°13' W 046°13'0 0.0
2016-Jul-10 13:31S 24°13' W 046°13'0 0.0
2016-Jul-10 12:31S 24°13' W 046°13'0 0.0
2016-Jul-10 11:31S 24°13' W 046°13'0 0.0
2016-Jul-10 10:31S 24°13' W 046°13'0 0.0
2016-Jul-10 09:31S 24°13' W 046°13'0 0.0
2016-Jul-10 08:31S 24°13' W 046°13'0 0.0
2016-Jul-10 07:22S 24°13' W 046°13'0 0.0
2016-Jul-10 06:31S 24°13' W 046°13'0 0.0
2016-Jul-10 05:28S 24°13' W 046°13'0 0.0
2016-Jul-10 04:28S 24°13' W 046°13'0 0.0
2016-Jul-10 03:31S 24°13' W 046°13'0 0.0
2016-Jul-10 02:28S 24°13' W 046°13'0 0.0
2016-Jul-10 01:31S 24°13' W 046°13'0 0.1
2016-Jul-10 00:33S 24°13' W 046°13'6 5.8
2016-Jul-09 23:33S 24°15' W 046°07'1212.3
2016-Jul-09 22:33S 24°14' W 045°53'1613.2
2016-Jul-09 21:22S 24°14' W 045°36'  
Track history (hours):
 
Tides and Currents Weather Stations Pressure Air Temp Water Temp Dewpoint Dewpoint Depression Visibility Wind Speed Wind Dir Waves Ship Positions

Star Markella

Last reported at 2016-Jul-12 10:29 UTC. Time now 2016-Jul-24 04:59 UTC.
Position S 24°33' W 045°25'.
Warning: this ship's position is 11 days out of date.

Length 229 m; draft 13.3 m.

Type: Cargo ship. MMSI: 538002640.

Date/timePositionNaut miles runAvg speedWind from/ knotsBaromVisibWave heightAir tempDewpointWater temp
2016-Jul-12 10:29S 24°33' W 045°25'1212.7
2016-Jul-12 09:33S 24°31' W 045°38'1312.6
2016-Jul-12 08:33S 24°29' W 045°52'1312.5
2016-Jul-12 07:33S 24°27' W 046°05'1111.1
2016-Jul-12 06:33S 24°22' W 046°16'1212.0
2016-Jul-12 05:33S 24°11' W 046°21'9 9.5
2016-Jul-12 04:33S 24°01' W 046°21'4 4.4
2016-Jul-12 03:33S 23°58' W 046°17'0 0.0
2016-Jul-12 02:30S 23°58' W 046°17'0 0.0
2016-Jul-12 01:30S 23°58' W 046°17'0 0.0
2016-Jul-12 00:33S 23°58' W 046°17'0 0.0
2016-Jul-11 23:33S 23°58' W 046°17'0 0.0
2016-Jul-11 22:30S 23°58' W 046°17'0 0.0
2016-Jul-11 21:33S 23°58' W 046°17'0 0.0
2016-Jul-11 20:30S 23°58' W 046°17'0 0.0
2016-Jul-11 19:33S 23°58' W 046°17'0 0.0
2016-Jul-11 18:33S 23°58' W 046°17'0 0.0
2016-Jul-11 17:27S 23°58' W 046°17'0 0.0
2016-Jul-11 16:33S 23°58' W 046°17'0 0.0
2016-Jul-11 15:33S 23°58' W 046°17'0 0.3
2016-Jul-11 14:33S 23°58' W 046°17'6 6.4
2016-Jul-11 13:33S 24°04' W 046°22'6 5.5
2016-Jul-11 12:33S 24°09' W 046°20'8 8.1
2016-Jul-11 11:33S 24°13' W 046°13'0 0.1
2016-Jul-11 10:31S 24°13' W 046°13'0 0.0
2016-Jul-11 09:31S 24°13' W 046°13'0 0.0
2016-Jul-11 08:31S 24°13' W 046°13'0 0.0
2016-Jul-11 07:31S 24°13' W 046°13'0 0.0
2016-Jul-11 06:28S 24°13' W 046°13'0 0.0
2016-Jul-11 04:31S 24°13' W 046°13'0 0.0
2016-Jul-11 03:31S 24°13' W 046°13'0 0.0
2016-Jul-11 02:31S 24°13' W 046°13'0 0.0
2016-Jul-11 01:31S 24°13' W 046°13'0 0.0
2016-Jul-11 00:28S 24°13' W 046°13'0 0.0
2016-Jul-10 23:31S 24°13' W 046°13'0 0.0
2016-Jul-10 22:31S 24°13' W 046°13'0 0.0
2016-Jul-10 21:31S 24°13' W 046°13'0 0.0
2016-Jul-10 20:31S 24°13' W 046°13'0 0.0
2016-Jul-10 19:31S 24°13' W 046°13'0 0.0
2016-Jul-10 18:28S 24°13' W 046°13'0 0.0
2016-Jul-10 17:28S 24°13' W 046°13'0 0.0
2016-Jul-10 16:31S 24°13' W 046°13'0 0.0
2016-Jul-10 15:31S 24°13' W 046°13'0 0.0
2016-Jul-10 14:25S 24°13' W 046°13'0 0.0
2016-Jul-10 13:31S 24°13' W 046°13'0 0.0
2016-Jul-10 12:31S 24°13' W 046°13'0 0.0
2016-Jul-10 11:31S 24°13' W 046°13'0 0.0
2016-Jul-10 10:31S 24°13' W 046°13'0 0.0
2016-Jul-10 09:31S 24°13' W 046°13'0 0.0
2016-Jul-10 08:31S 24°13' W 046°13'0 0.0
2016-Jul-10 07:22S 24°13' W 046°13'0 0.0
2016-Jul-10 06:31S 24°13' W 046°13'0 0.0
2016-Jul-10 05:28S 24°13' W 046°13'0 0.0
2016-Jul-10 04:28S 24°13' W 046°13'0 0.0
2016-Jul-10 03:31S 24°13' W 046°13'0 0.0
2016-Jul-10 02:28S 24°13' W 046°13'0 0.0
2016-Jul-10 01:31S 24°13' W 046°13'0 0.1
2016-Jul-10 00:33S 24°13' W 046°13'6 5.8
2016-Jul-09 23:33S 24°15' W 046°07'1212.3
2016-Jul-09 22:33S 24°14' W 045°53'1613.2
2016-Jul-09 21:22S 24°14' W 045°36'  

Dump ship's entire track history